createdAt,value
2022-12-17T00:03:03.123Z,172.40
2022-12-17T00:08:23.898Z,162.30
2022-12-17T00:13:44.437Z,156.70
2022-12-17T00:24:25.358Z,164.60
2022-12-17T00:29:45.932Z,174.90
2022-12-17T00:35:06.713Z,158.50
2022-12-17T00:40:28.181Z,170.70
2022-12-17T00:45:48.752Z,172.00
2022-12-17T00:51:09.424Z,137.50
2022-12-17T00:56:30.374Z,182.40
2022-12-17T01:01:51.184Z,160.90
2022-12-17T01:07:12.643Z,147.60
2022-12-17T01:12:33.234Z,158.80
2022-12-17T01:17:53.736Z,170.90
2022-12-17T01:23:16.863Z,163.80
2022-12-17T01:28:43.078Z,193.30
2022-12-17T01:34:03.559Z,186.40
2022-12-17T01:39:24.115Z,175.00
2022-12-17T01:45:03.228Z,165.70
2022-12-17T01:50:24.205Z,160.90
2022-12-17T01:55:44.778Z,180.50
2022-12-17T02:01:05.568Z,190.30
2022-12-17T02:06:45.527Z,196.20
2022-12-17T02:12:31.970Z,190.70
2022-12-17T02:18:00.500Z,210.20
2022-12-17T02:23:47.145Z,190.60
2022-12-17T02:29:10.806Z,211.30
2022-12-17T02:34:31.434Z,208.20
2022-12-17T02:39:52.205Z,181.40
2022-12-17T02:45:17.507Z,178.10
2022-12-17T02:50:38.134Z,202.40
2022-12-17T02:55:58.730Z,147.70
2022-12-17T03:01:21.030Z,169.40
2022-12-17T03:06:41.750Z,169.90
2022-12-17T03:12:02.406Z,172.40
2022-12-17T03:17:22.898Z,179.50
2022-12-17T03:22:43.332Z,166.70
2022-12-17T03:28:03.880Z,183.90
2022-12-17T03:33:27.400Z,174.50
2022-12-17T03:38:47.930Z,172.50
2022-12-17T03:44:08.420Z,166.50
2022-12-17T03:49:48.756Z,174.50
2022-12-17T04:00:30.312Z,159.80
2022-12-17T04:05:50.688Z,196.50
2022-12-17T04:11:11.259Z,191.70
2022-12-17T04:16:31.652Z,219.30
2022-12-17T04:21:52.136Z,196.10
2022-12-17T04:27:12.601Z,192.60
2022-12-17T04:32:35.369Z,180.30
2022-12-17T04:37:56.354Z,136.70
2022-12-17T04:43:25.014Z,182.00
2022-12-17T04:48:45.591Z,192.20
2022-12-17T04:54:06.236Z,179.90
2022-12-17T04:59:26.774Z,187.20
2022-12-17T05:04:47.491Z,154.90
2022-12-17T05:10:07.950Z,168.60
2022-12-17T05:15:28.532Z,185.50
2022-12-17T05:20:49.089Z,163.70
2022-12-17T05:26:21.842Z,169.10
2022-12-17T05:31:42.251Z,150.50
2022-12-17T05:37:02.626Z,174.40
2022-12-17T05:47:43.838Z,162.10
2022-12-17T05:53:04.402Z,184.20
2022-12-17T05:58:28.868Z,193.80
2022-12-17T06:03:49.631Z,183.20
2022-12-17T06:09:10.441Z,215.00
2022-12-17T06:14:31.031Z,172.50
2022-12-17T06:19:51.403Z,194.20
2022-12-17T06:25:11.915Z,210.80
2022-12-17T06:30:32.580Z,205.50
2022-12-17T06:35:53.002Z,188.90
2022-12-17T06:41:13.471Z,176.00
2022-12-17T06:46:34.242Z,196.00
2022-12-17T06:51:54.887Z,189.10
2022-12-17T06:57:15.581Z,198.50
2022-12-17T07:02:49.881Z,216.20
2022-12-17T07:08:18.272Z,200.80
2022-12-17T07:13:39.233Z,196.50
2022-12-17T07:19:01.076Z,188.00
2022-12-17T07:24:21.744Z,208.10
2022-12-17T07:29:42.244Z,204.50
2022-12-17T07:35:02.908Z,204.10
2022-12-17T07:40:23.924Z,208.00
2022-12-17T07:45:45.082Z,199.20
2022-12-17T07:51:09.718Z,211.30
2022-12-17T07:56:30.155Z,195.90
2022-12-17T08:01:50.908Z,199.20
2022-12-17T08:07:14.151Z,199.50
2022-12-17T08:12:35.205Z,207.10
2022-12-17T08:17:55.702Z,189.10
2022-12-17T08:23:21.491Z,187.70
2022-12-17T08:28:52.604Z,170.20
2022-12-17T08:34:13.327Z,201.70
2022-12-17T08:39:33.715Z,199.00
2022-12-17T08:44:54.185Z,183.60
2022-12-17T08:50:14.780Z,177.60
2022-12-17T08:55:35.306Z,177.20
2022-12-17T09:00:55.997Z,127.80
2022-12-17T09:06:18.027Z,157.20
2022-12-17T09:11:38.662Z,167.50
2022-12-17T09:16:59.203Z,130.60
2022-12-17T09:22:20.028Z,146.20
2022-12-17T09:27:40.651Z,145.50
2022-12-17T09:33:01.162Z,126.80
2022-12-17T09:38:21.796Z,139.90
2022-12-17T09:43:59.269Z,132.20
2022-12-17T09:49:23.862Z,140.40
2022-12-17T09:54:48.363Z,141.70
2022-12-17T10:00:08.679Z,122.80
2022-12-17T10:05:39.464Z,134.50
2022-12-17T10:11:03.941Z,124.90
2022-12-17T10:17:11.692Z,131.90
2022-12-17T10:22:37.929Z,139.40
2022-12-17T10:28:00.188Z,119.60
2022-12-17T10:33:25.756Z,135.90
2022-12-17T10:38:48.896Z,128.10
2022-12-17T10:44:09.694Z,117.70
2022-12-17T10:49:36.194Z,133.30
2022-12-17T10:54:57.009Z,128.90
2022-12-17T11:00:18.041Z,129.20
2022-12-17T11:05:48.420Z,134.90
2022-12-17T11:11:09.657Z,132.70
2022-12-17T11:16:46.008Z,123.00
2022-12-17T11:22:10.518Z,118.60
2022-12-17T11:27:37.192Z,133.50
2022-12-17T11:33:17.548Z,105.40
2022-12-17T11:44:01.614Z,115.40
2022-12-17T11:49:32.158Z,120.90
2022-12-17T11:55:18.130Z,119.50
2022-12-17T12:00:41.841Z,124.90
2022-12-17T12:06:13.728Z,121.00
2022-12-17T12:12:05.220Z,124.20
2022-12-17T12:17:56.915Z,160.30
2022-12-17T12:23:42.778Z,130.20
2022-12-17T12:29:29.645Z,134.70
2022-12-17T12:34:55.454Z,136.70
2022-12-17T12:40:40.143Z,144.30
2022-12-17T12:46:08.839Z,124.90
2022-12-17T12:51:37.955Z,118.60
2022-12-17T12:56:58.224Z,110.30
2022-12-17T13:02:18.950Z,122.20
2022-12-17T13:07:30.905Z,125.50
2022-12-17T13:12:42.286Z,122.30
2022-12-17T13:18:00.239Z,130.20
2022-12-17T13:23:29.161Z,118.90
2022-12-17T13:28:40.166Z,116.20
2022-12-17T13:34:00.624Z,115.00
2022-12-17T13:44:30.618Z,110.40
2022-12-17T13:49:32.740Z,119.60
2022-12-17T13:54:34.826Z,110.20
2022-12-17T13:59:36.712Z,111.80
2022-12-17T14:04:38.680Z,127.70
2022-12-17T14:09:44.026Z,114.80
2022-12-17T14:14:52.727Z,110.70
2022-12-17T14:20:02.802Z,114.60
2022-12-17T14:25:13.340Z,120.20
2022-12-17T14:30:24.915Z,117.80
2022-12-17T14:35:30.413Z,100.80
2022-12-17T14:40:32.318Z,111.00
2022-12-17T14:45:54.173Z,123.20
2022-12-17T14:50:56.511Z,94.70
2022-12-17T14:55:59.356Z,106.20
2022-12-17T15:01:09.094Z,83.10
2022-12-17T15:06:16.575Z,109.30
2022-12-17T15:11:21.947Z,101.50
2022-12-17T15:16:24.332Z,101.40
2022-12-17T15:21:27.100Z,89.00
2022-12-17T15:26:28.918Z,90.90
2022-12-17T15:31:35.255Z,95.80
2022-12-17T15:36:37.725Z,103.60
2022-12-17T15:41:58.326Z,113.00
2022-12-17T15:47:00.180Z,92.00
2022-12-17T15:52:02.029Z,90.00
2022-12-17T15:57:04.024Z,94.10
2022-12-17T16:02:06.702Z,89.50
2022-12-17T16:07:08.941Z,81.40
2022-12-17T16:12:10.659Z,93.30
2022-12-17T16:17:13.169Z,88.20
2022-12-17T16:22:14.924Z,89.10
2022-12-17T16:27:18.198Z,85.90
2022-12-17T16:32:20.050Z,89.50
2022-12-17T16:37:21.830Z,109.60
2022-12-17T16:42:23.620Z,86.90
2022-12-17T16:47:26.700Z,99.30
2022-12-17T16:52:28.536Z,79.60
2022-12-17T16:57:30.363Z,94.50
2022-12-17T17:02:32.638Z,93.20
2022-12-17T17:07:34.672Z,65.40
2022-12-17T17:12:36.580Z,81.60
2022-12-17T17:17:54.158Z,75.40
2022-12-17T17:22:57.934Z,86.10
2022-12-17T17:27:59.694Z,83.60
2022-12-17T17:33:01.460Z,70.30
2022-12-17T17:38:03.289Z,79.70
2022-12-17T17:43:05.079Z,69.50
2022-12-17T17:48:07.056Z,89.30
2022-12-17T17:53:08.912Z,74.30
2022-12-17T17:58:10.731Z,83.20
2022-12-17T18:03:12.650Z,62.80
2022-12-17T18:08:14.513Z,83.80
2022-12-17T18:13:35.092Z,88.60
2022-12-17T18:18:38.348Z,98.30
2022-12-17T18:23:41.104Z,86.90
2022-12-17T18:28:44.444Z,82.00
2022-12-17T18:33:48.923Z,74.60
2022-12-17T18:38:58.666Z,59.60
2022-12-17T18:44:03.623Z,54.40
2022-12-17T18:49:09.187Z,55.40
2022-12-17T18:54:19.363Z,48.30
2022-12-17T18:59:28.543Z,53.20
2022-12-17T19:04:33.046Z,57.10
2022-12-17T19:09:35.809Z,74.60
2022-12-17T19:14:37.825Z,65.00
2022-12-17T19:19:39.564Z,73.10
2022-12-17T19:24:41.330Z,61.40
2022-12-17T19:29:48.960Z,62.50
2022-12-17T19:34:51.632Z,59.70
2022-12-17T19:39:53.829Z,57.10
2022-12-17T19:44:56.960Z,52.40
2022-12-17T19:49:59.109Z,64.70
2022-12-17T19:55:01.987Z,65.50
2022-12-17T20:00:04.227Z,65.70
2022-12-17T20:05:14.657Z,66.30
2022-12-17T20:10:16.511Z,58.30
2022-12-17T20:15:18.396Z,70.10
2022-12-17T20:20:20.189Z,72.50
2022-12-17T20:25:21.984Z,68.30
2022-12-17T20:30:23.803Z,67.20
2022-12-17T20:35:27.077Z,67.40
2022-12-17T20:40:28.931Z,53.00
2022-12-17T20:45:30.873Z,68.00
2022-12-17T20:50:32.820Z,58.40
2022-12-17T20:55:34.753Z,58.40
2022-12-17T21:00:36.806Z,67.40
2022-12-17T21:05:40.218Z,63.30
2022-12-17T21:10:42.000Z,68.40
2022-12-17T21:15:49.654Z,75.20
2022-12-17T21:21:02.698Z,62.00
2022-12-17T21:26:13.752Z,72.60
2022-12-17T21:31:17.188Z,72.40
2022-12-17T21:36:21.403Z,54.60
2022-12-17T21:41:27.245Z,68.00
2022-12-17T21:46:29.733Z,69.50
2022-12-17T21:51:32.373Z,68.10
2022-12-17T21:56:34.352Z,72.80
2022-12-17T22:01:36.604Z,76.60
2022-12-17T22:06:43.436Z,76.10
2022-12-17T22:12:15.031Z,70.30
2022-12-17T22:17:16.934Z,53.40
2022-12-17T22:22:18.742Z,55.90
2022-12-17T22:27:20.541Z,51.70
2022-12-17T22:32:43.277Z,53.00
2022-12-17T22:40:31.288Z,63.40
2022-12-17T22:44:43.582Z,58.30
2022-12-17T22:48:50.898Z,59.00
2022-12-17T22:53:53.679Z,66.20
2022-12-17T22:58:56.835Z,49.60
2022-12-17T23:04:00.344Z,59.60
2022-12-17T23:09:02.154Z,55.60
2022-12-17T23:14:06.059Z,53.80
2022-12-17T23:19:08.428Z,43.20
2022-12-17T23:24:10.561Z,54.10
2022-12-17T23:29:19.093Z,48.50
2022-12-17T23:34:21.452Z,51.50
2022-12-17T23:39:23.389Z,39.70
2022-12-17T23:44:25.302Z,53.50
2022-12-17T23:49:27.169Z,56.00
2022-12-17T23:54:29.079Z,43.70
2022-12-17T23:59:31.028Z,52.30
